Time;durP1;ratioP1;P1;durP2;ratioP2;P2;SDS_P1;SDS_P2;PMS_P1;PMS_P2;Temp;Humidity;BMP_temperature;BMP_pressure;BME280_temperature;BME280_humidity;BME280_pressure;Samples;Min_cycle;Max_cycle;Signal;HPM_P1;HPM_P2
2021/08/16 00:00:28;;;;;;;;;4.25;2.25;;;;;;;;4949607;28;8805;-85
2021/08/16 00:02:56;;;;;;;;;1.75;1.25;;;;;;;;4968125;28;9030;-88
2021/08/16 00:05:25;;;;;;;;;2.00;2.00;;;;;;;;4967762;28;8872;-88
2021/08/16 00:07:52;;;;;;;;;3.00;3.00;;;;;;;;4966706;28;8873;-85
2021/08/16 00:10:20;;;;;;;;;1.25;1.25;;;;;;;;4951263;28;8857;-89
2021/08/16 00:12:48;;;;;;;;;1.75;1.75;;;;;;;;4968344;28;8870;-84
2021/08/16 00:15:15;;;;;;;;;5.00;3.75;;;;;;;;4985583;28;9593;-86
2021/08/16 00:17:44;;;;;;;;;2.50;2.50;;;;;;;;4975890;28;9639;-84
2021/08/16 00:20:11;;;;;;;;;1.75;1.75;;;;;;;;4967487;28;8872;-87
2021/08/16 00:22:40;;;;;;;;;4.50;2.25;;;;;;;;4980801;28;8861;-84
2021/08/16 00:25:08;;;;;;;;;5.00;2.00;;;;;;;;4967144;28;8904;-85
2021/08/16 00:27:35;;;;;;;;;2.00;2.00;;;;;;;;4967983;28;9673;-87
2021/08/16 00:30:03;;;;;;;;;2.50;2.50;;;;;;;;4971851;28;8855;-87
2021/08/16 00:32:31;;;;;;;;;6.00;4.00;;;;;;;;4968908;28;8881;-86
2021/08/16 00:34:58;;;;;;;;;3.00;1.25;;;;;;;;4966262;28;8861;-84
2021/08/16 00:37:25;;;;;;;;;2.50;2.50;;;;;;;;4967714;28;8940;-87
2021/08/16 00:40:07;;;;;;;;;2.75;2.75;;;;;;;;4966368;28;8861;-85
2021/08/16 00:42:36;;;;;;;;;2.00;2.00;;;;;;;;4949550;28;8868;-85
2021/08/16 00:45:04;;;;;;;;;4.00;4.00;;;;;;;;4967305;28;8881;-87
2021/08/16 00:47:31;;;;;;;;;2.00;2.00;;;;;;;;4969168;28;8861;-85
2021/08/16 00:49:58;;;;;;;;;1.00;1.00;;;;;;;;4953908;28;8890;-84
2021/08/16 00:52:26;;;;;;;;;2.75;2.75;;;;;;;;4966511;28;8915;-88
2021/08/16 00:54:53;;;;;;;;;3.75;2.00;;;;;;;;4967981;28;8919;-87
2021/08/16 00:57:22;;;;;;;;;1.50;0.50;;;;;;;;4966862;28;8869;-85
2021/08/16 00:59:50;;;;;;;;;2.80;2.80;;;;;;;;4967045;28;8931;-85
2021/08/16 01:02:17;;;;;;;;;2.50;2.50;;;;;;;;4966927;28;8815;-84
2021/08/16 01:04:44;;;;;;;;;3.75;3.25;;;;;;;;4966583;28;8873;-86
2021/08/16 01:07:11;;;;;;;;;3.00;2.50;;;;;;;;4967595;28;9655;-84
2021/08/16 01:09:39;;;;;;;;;3.00;3.00;;;;;;;;4966454;28;8869;-86
2021/08/16 01:12:08;;;;;;;;;2.50;2.50;;;;;;;;4968228;28;8877;-91
2021/08/16 01:14:37;;;;;;;;;2.00;2.00;;;;;;;;4955474;28;8869;-93
2021/08/16 01:17:05;;;;;;;;;3.00;3.00;;;;;;;;4966880;28;8899;-85
2021/08/16 01:19:36;;;;;;;;;3.60;3.00;;;;;;;;4967048;28;8893;-84
2021/08/16 01:22:53;;;;;;;;;3.00;2.00;;;;;;;;4950003;28;8873;-88
2021/08/16 01:25:21;;;;;;;;;2.50;2.50;;;;;;;;4967903;28;8880;-84
2021/08/16 01:27:49;;;;;;;;;2.40;2.40;;;;;;;;4966448;28;8865;-87
2021/08/16 01:30:18;;;;;;;;;2.60;2.60;;;;;;;;4965732;28;8868;-89
2021/08/16 01:32:46;;;;;;;;;2.00;2.00;;;;;;;;4954270;28;8846;-89
2021/08/16 01:35:13;;;;;;;;;1.00;1.00;;;;;;;;4964408;28;8869;-86
2021/08/16 01:37:42;;;;;;;;;2.00;2.00;;;;;;;;4957571;28;8876;-86
2021/08/16 01:40:14;;;;;;;;;2.00;2.00;;;;;;;;4965599;28;8983;-85
2021/08/16 01:42:41;;;;;;;;;2.40;2.40;;;;;;;;4949394;28;8881;-84
2021/08/16 01:45:12;;;;;;;;;3.00;3.00;;;;;;;;4965585;28;8868;-86
2021/08/16 01:47:39;;;;;;;;;3.00;2.00;;;;;;;;4966292;28;8884;-85
2021/08/16 01:50:07;;;;;;;;;2.75;2.75;;;;;;;;4966448;28;8861;-84
2021/08/16 01:52:34;;;;;;;;;2.00;2.00;;;;;;;;4965974;28;8906;-89
2021/08/16 01:55:02;;;;;;;;;6.25;3.00;;;;;;;;4966538;28;8897;-86
2021/08/16 01:57:30;;;;;;;;;3.00;3.00;;;;;;;;4965613;28;9665;-89
2021/08/16 01:59:57;;;;;;;;;1.00;1.00;;;;;;;;4966985;28;9830;-86
2021/08/16 02:02:26;;;;;;;;;3.75;2.00;;;;;;;;4947749;28;8880;-86
2021/08/16 02:04:53;;;;;;;;;3.00;3.00;;;;;;;;4948569;28;8923;-86
2021/08/16 02:10:38;;;;;;;;;1.00;1.00;;;;;;;;4845349;29;8916;-87
2021/08/16 02:13:10;;;;;;;;;4.00;2.00;;;;;;;;4900503;28;8885;-87
2021/08/16 02:15:37;;;;;;;;;2.00;2.00;;;;;;;;4953983;28;8873;-84
2021/08/16 02:21:15;;;;;;;;;4.25;3.00;;;;;;;;4878669;29;8890;-87
2021/08/16 02:23:43;;;;;;;;;3.25;2.50;;;;;;;;4931386;28;8873;-86
2021/08/16 02:26:10;;;;;;;;;2.00;2.00;;;;;;;;4966158;28;8999;-88
2021/08/16 02:28:37;;;;;;;;;4.00;2.25;;;;;;;;4964663;28;8877;-85
2021/08/16 02:31:04;;;;;;;;;3.00;3.00;;;;;;;;4948930;28;8918;-87
2021/08/16 02:33:33;;;;;;;;;3.75;3.25;;;;;;;;4953457;28;8911;-85
2021/08/16 02:36:01;;;;;;;;;3.00;3.00;;;;;;;;4965383;28;8890;-89
2021/08/16 02:38:28;;;;;;;;;3.50;2.25;;;;;;;;4967724;28;8881;-92
2021/08/16 02:40:55;;;;;;;;;3.50;3.50;;;;;;;;4962874;28;8883;-85
2021/08/16 02:43:22;;;;;;;;;2.50;2.50;;;;;;;;4946092;28;8911;-89
2021/08/16 02:45:50;;;;;;;;;5.50;2.25;;;;;;;;4964877;28;8852;-86
2021/08/16 02:48:17;;;;;;;;;1.00;1.00;;;;;;;;4965045;28;8861;-85
2021/08/16 02:50:47;;;;;;;;;4.00;2.00;;;;;;;;4964078;28;8893;-85
2021/08/16 02:59:18;;;;;;;;;3.75;2.75;;;;;;;;4890287;29;8990;-87
2021/08/16 03:01:46;;;;;;;;;3.50;2.00;;;;;;;;4890682;29;8825;-85
2021/08/16 03:04:13;;;;;;;;;2.75;2.75;;;;;;;;4965605;28;8883;-85
2021/08/16 03:06:42;;;;;;;;;2.00;2.00;;;;;;;;4938789;28;8877;-87
2021/08/16 03:09:09;;;;;;;;;3.75;3.75;;;;;;;;4969823;28;8856;-88
2021/08/16 03:11:41;;;;;;;;;2.50;2.50;;;;;;;;4968283;28;9851;-85
2021/08/16 03:14:08;;;;;;;;;5.25;3.00;;;;;;;;4976514;28;8871;-86
2021/08/16 03:16:35;;;;;;;;;3.00;3.00;;;;;;;;4950601;28;8892;-85
2021/08/16 03:19:03;;;;;;;;;3.75;3.75;;;;;;;;4969361;28;9353;-86
2021/08/16 03:21:30;;;;;;;;;2.00;2.00;;;;;;;;4953288;28;9002;-86
2021/08/16 03:23:59;;;;;;;;;2.00;1.00;;;;;;;;4968409;28;8918;-85
2021/08/16 03:26:26;;;;;;;;;1.50;1.50;;;;;;;;4968318;28;8863;-85
2021/08/16 03:28:54;;;;;;;;;3.25;3.25;;;;;;;;4967258;28;8865;-84
2021/08/16 03:31:21;;;;;;;;;2.00;2.00;;;;;;;;4969113;28;8803;-89
2021/08/16 03:33:48;;;;;;;;;4.75;2.00;;;;;;;;4967894;28;8891;-86
2021/08/16 03:36:16;;;;;;;;;1.25;1.25;;;;;;;;4935684;28;8884;-87
2021/08/16 03:41:27;;;;;;;;;3.50;1.50;;;;;;;;4967478;28;8928;-85
2021/08/16 03:43:54;;;;;;;;;3.00;1.60;;;;;;;;4969093;28;8991;-87
2021/08/16 03:46:21;;;;;;;;;2.00;2.00;;;;;;;;4967875;28;8891;-85
2021/08/16 03:48:49;;;;;;;;;3.75;2.50;;;;;;;;4968214;28;8976;-84
2021/08/16 03:51:16;;;;;;;;;1.50;1.50;;;;;;;;4967685;28;8869;-86
2021/08/16 03:53:44;;;;;;;;;2.75;1.00;;;;;;;;4932663;28;8871;-87
2021/08/16 03:56:11;;;;;;;;;3.75;3.00;;;;;;;;4959915;28;8899;-87
2021/08/16 03:58:41;;;;;;;;;3.00;2.75;;;;;;;;4951809;28;8931;-86
2021/08/16 04:01:09;;;;;;;;;3.00;2.00;;;;;;;;4967324;28;8797;-86
2021/08/16 04:44:11;;;;;;;;;4.50;2.75;;;;;;;;5005290;28;8892;-85
2021/08/16 04:46:39;;;;;;;;;1.25;1.25;;;;;;;;5005930;28;8969;-89
2021/08/16 04:49:06;;;;;;;;;5.50;2.75;;;;;;;;5006231;28;8971;-86
2021/08/16 04:51:34;;;;;;;;;2.00;1.50;;;;;;;;5006622;28;8884;-88
2021/08/16 04:54:01;;;;;;;;;2.00;2.00;;;;;;;;5005836;28;9610;-83
2021/08/16 04:56:28;;;;;;;;;1.50;1.50;;;;;;;;5006738;28;8884;-85
2021/08/16 04:58:57;;;;;;;;;1.00;1.00;;;;;;;;5005647;28;8883;-86
2021/08/16 05:01:26;;;;;;;;;3.25;1.75;;;;;;;;5005827;28;8820;-88
2021/08/16 05:03:54;;;;;;;;;2.25;2.25;;;;;;;;5005888;28;8918;-84
2021/08/16 05:06:28;;;;;;;;;2.00;2.00;;;;;;;;5006102;28;8895;-85
2021/08/16 05:08:56;;;;;;;;;1.75;1.75;;;;;;;;5006093;28;8887;-84
2021/08/16 05:11:25;;;;;;;;;3.00;1.00;;;;;;;;5005948;28;8900;-85
2021/08/16 05:13:53;;;;;;;;;2.75;1.50;;;;;;;;5005993;28;8863;-86
2021/08/16 05:16:23;;;;;;;;;2.00;2.00;;;;;;;;4987197;28;8898;-85
2021/08/16 05:18:52;;;;;;;;;2.00;2.00;;;;;;;;4989350;28;8887;-85
2021/08/16 05:21:20;;;;;;;;;1.00;1.00;;;;;;;;5004256;28;8895;-85
2021/08/16 05:23:47;;;;;;;;;1.00;1.00;;;;;;;;5006004;28;9642;-85
2021/08/16 05:26:15;;;;;;;;;2.00;2.00;;;;;;;;5005412;28;8899;-85
2021/08/16 05:32:06;;;;;;;;;1.50;1.00;;;;;;;;5007178;28;8887;-85
2021/08/16 05:34:34;;;;;;;;;2.00;2.00;;;;;;;;4987679;28;8925;-85
2021/08/16 05:37:02;;;;;;;;;0.25;0.25;;;;;;;;4997524;28;8896;-89
2021/08/16 05:39:29;;;;;;;;;2.00;2.00;;;;;;;;5005192;28;8888;-85
2021/08/16 05:41:57;;;;;;;;;1.25;1.25;;;;;;;;5003123;28;8926;-85
2021/08/16 05:44:24;;;;;;;;;0.75;0.75;;;;;;;;4994509;28;8956;-84
2021/08/16 05:46:51;;;;;;;;;2.50;1.00;;;;;;;;5004218;28;8880;-84
2021/08/16 05:49:18;;;;;;;;;2.00;1.00;;;;;;;;5005114;28;8864;-84
2021/08/16 05:51:47;;;;;;;;;1.50;1.00;;;;;;;;5004868;28;9006;-83
2021/08/16 05:54:15;;;;;;;;;1.50;1.50;;;;;;;;5005369;28;8878;-85
2021/08/16 05:56:42;;;;;;;;;1.00;1.00;;;;;;;;5003929;28;8884;-84
2021/08/16 05:59:09;;;;;;;;;1.75;0.50;;;;;;;;5004995;28;8872;-84
2021/08/16 06:01:39;;;;;;;;;1.00;1.00;;;;;;;;4991548;28;8825;-84
2021/08/16 06:04:07;;;;;;;;;1.00;1.00;;;;;;;;5004136;28;9654;-84
2021/08/16 06:06:34;;;;;;;;;1.00;1.00;;;;;;;;5001073;28;8909;-87
2021/08/16 06:18:32;;;;;;;;;2.00;2.00;;;;;;;;4933382;28;8834;-87
2021/08/16 06:20:59;;;;;;;;;2.00;1.00;;;;;;;;4945220;28;9015;-85
2021/08/16 06:23:27;;;;;;;;;1.00;1.00;;;;;;;;4944606;28;9864;-82
2021/08/16 06:25:56;;;;;;;;;1.00;1.00;;;;;;;;4943508;28;9011;-82
2021/08/16 06:28:23;;;;;;;;;1.00;1.00;;;;;;;;4928818;28;8882;-83
2021/08/16 06:30:50;;;;;;;;;3.50;1.00;;;;;;;;4941361;28;8852;-81
2021/08/16 06:33:17;;;;;;;;;2.00;2.00;;;;;;;;4944502;28;9955;-87
2021/08/16 06:35:45;;;;;;;;;1.00;1.00;;;;;;;;4953519;28;8903;-87
2021/08/16 06:38:21;;;;;;;;;1.00;1.00;;;;;;;;4971512;28;8899;-86
2021/08/16 06:40:49;;;;;;;;;2.50;2.00;;;;;;;;5004742;28;8923;-82
2021/08/16 06:43:18;;;;;;;;;1.00;1.00;;;;;;;;5004651;28;8950;-88
2021/08/16 06:45:46;;;;;;;;;1.50;1.50;;;;;;;;5005064;28;8868;-85
2021/08/16 06:48:14;;;;;;;;;3.50;1.25;;;;;;;;4985869;28;8902;-84
2021/08/16 06:50:42;;;;;;;;;2.25;1.25;;;;;;;;4997352;28;8880;-84
2021/08/16 06:53:14;;;;;;;;;1.75;1.75;;;;;;;;5003165;28;8860;-89
2021/08/16 06:55:41;;;;;;;;;1.00;1.00;;;;;;;;4988084;28;8879;-88
2021/08/16 06:58:08;;;;;;;;;1.00;1.00;;;;;;;;5004225;28;8868;-83
2021/08/16 07:00:41;;;;;;;;;1.75;1.00;;;;;;;;5003145;28;9834;-83
2021/08/16 07:03:09;;;;;;;;;2.25;1.25;;;;;;;;5001701;28;8879;-85
2021/08/16 07:05:37;;;;;;;;;1.00;1.00;;;;;;;;5000757;28;8907;-84
2021/08/16 07:08:05;;;;;;;;;3.20;2.00;;;;;;;;4986692;28;8884;-83
2021/08/16 07:10:32;;;;;;;;;2.00;0.00;;;;;;;;4982715;28;8862;-85
2021/08/16 07:13:00;;;;;;;;;2.60;1.00;;;;;;;;5001279;28;8856;-86
2021/08/16 07:15:27;;;;;;;;;4.00;0.40;;;;;;;;5002920;28;8869;-83
2021/08/16 07:17:56;;;;;;;;;3.00;1.00;;;;;;;;5003789;28;8864;-82
2021/08/16 07:20:24;;;;;;;;;1.00;1.00;;;;;;;;4986826;28;8865;-83
2021/08/16 07:22:51;;;;;;;;;1.75;1.00;;;;;;;;4984798;28;8879;-83
2021/08/16 07:25:18;;;;;;;;;1.80;0.80;;;;;;;;5001632;28;8874;-83
2021/08/16 07:27:45;;;;;;;;;2.00;0.00;;;;;;;;5002356;28;8852;-83
2021/08/16 07:30:13;;;;;;;;;2.40;1.00;;;;;;;;5003381;28;8861;-82
2021/08/16 07:32:41;;;;;;;;;1.00;1.00;;;;;;;;5002925;28;8890;-81
2021/08/16 07:35:11;;;;;;;;;1.00;1.00;;;;;;;;5003627;28;8962;-83
2021/08/16 07:37:38;;;;;;;;;0.40;0.40;;;;;;;;5003545;28;8836;-85
2021/08/16 07:40:07;;;;;;;;;2.00;2.00;;;;;;;;5002652;28;9642;-83
2021/08/16 07:42:34;;;;;;;;;0.00;0.00;;;;;;;;5002005;28;9740;-85
2021/08/16 07:45:01;;;;;;;;;0.40;0.40;;;;;;;;5006366;28;8914;-84
2021/08/16 07:47:29;;;;;;;;;1.40;1.00;;;;;;;;5007023;28;8891;-84
2021/08/16 07:49:56;;;;;;;;;0.00;0.00;;;;;;;;4988056;28;9005;-79
2021/08/16 07:52:25;;;;;;;;;1.20;1.00;;;;;;;;5007062;28;8864;-83
2021/08/16 07:54:55;;;;;;;;;1.00;1.00;;;;;;;;5006650;28;8870;-84
2021/08/16 07:57:22;;;;;;;;;0.60;0.60;;;;;;;;5006783;28;8864;-83
2021/08/16 07:59:50;;;;;;;;;0.60;0.60;;;;;;;;5007545;28;8894;-86
2021/08/16 08:02:17;;;;;;;;;0.00;0.00;;;;;;;;5005670;28;8981;-86
2021/08/16 08:04:44;;;;;;;;;0.00;0.00;;;;;;;;5007452;28;8893;-84
2021/08/16 08:07:11;;;;;;;;;0.00;0.00;;;;;;;;4989327;28;9004;-85
2021/08/16 08:09:40;;;;;;;;;0.00;0.00;;;;;;;;4977043;28;8910;-82
2021/08/16 08:12:08;;;;;;;;;1.80;0.40;;;;;;;;5007018;28;8883;-86
2021/08/16 08:14:37;;;;;;;;;1.00;1.00;;;;;;;;5005606;28;8881;-85
2021/08/16 08:17:05;;;;;;;;;0.00;0.00;;;;;;;;5006825;28;8897;-84
2021/08/16 08:19:32;;;;;;;;;1.00;1.00;;;;;;;;5005368;28;8865;-87
2021/08/16 08:22:00;;;;;;;;;0.60;0.60;;;;;;;;4990009;28;8872;-84
2021/08/16 08:24:28;;;;;;;;;0.80;0.00;;;;;;;;5005911;28;8852;-84
2021/08/16 08:26:57;;;;;;;;;2.00;0.00;;;;;;;;5004518;28;8860;-85
2021/08/16 08:29:25;;;;;;;;;0.50;0.00;;;;;;;;5002501;28;9007;-84
2021/08/16 08:31:52;;;;;;;;;0.00;0.00;;;;;;;;5006229;28;8911;-84
2021/08/16 08:34:20;;;;;;;;;0.00;0.00;;;;;;;;5006340;28;9003;-81
2021/08/16 08:36:47;;;;;;;;;0.00;0.00;;;;;;;;5001819;28;8907;-79
2021/08/16 08:39:14;;;;;;;;;1.20;1.00;;;;;;;;5005792;28;8884;-78
2021/08/16 08:41:42;;;;;;;;;1.00;1.00;;;;;;;;5004625;28;8880;-79
2021/08/16 08:44:13;;;;;;;;;0.60;0.60;;;;;;;;4988888;28;8868;-80
2021/08/16 08:46:41;;;;;;;;;1.20;1.20;;;;;;;;5004810;28;8868;-79
2021/08/16 08:49:08;;;;;;;;;3.00;1.20;;;;;;;;5006484;28;8880;-79
2021/08/16 08:51:37;;;;;;;;;1.00;1.00;;;;;;;;5004927;28;8907;-79
2021/08/16 08:54:04;;;;;;;;;1.00;1.00;;;;;;;;5006021;28;8848;-80
2021/08/16 08:56:32;;;;;;;;;1.00;1.00;;;;;;;;5005816;28;8856;-79
2021/08/16 08:58:59;;;;;;;;;1.00;1.00;;;;;;;;5002281;28;8887;-78
2021/08/16 09:01:29;;;;;;;;;1.00;1.00;;;;;;;;5005173;28;9396;-80
2021/08/16 09:03:57;;;;;;;;;2.60;1.40;;;;;;;;5004511;28;8867;-79
2021/08/16 09:06:31;;;;;;;;;1.00;1.00;;;;;;;;5005386;28;8867;-78
2021/08/16 09:08:59;;;;;;;;;2.00;2.00;;;;;;;;5004738;28;8864;-79
2021/08/16 09:11:27;;;;;;;;;1.00;1.00;;;;;;;;5004809;28;8852;-79
2021/08/16 09:13:57;;;;;;;;;1.00;1.00;;;;;;;;5005320;28;8963;-79
2021/08/16 09:16:25;;;;;;;;;2.00;2.00;;;;;;;;4985143;28;8895;-80
2021/08/16 09:18:54;;;;;;;;;2.20;2.20;;;;;;;;5005532;28;8887;-79
2021/08/16 09:21:32;;;;;;;;;1.00;1.00;;;;;;;;5004093;28;8869;-79
2021/08/16 09:24:01;;;;;;;;;1.00;1.00;;;;;;;;4988213;28;8869;-79
2021/08/16 09:26:30;;;;;;;;;1.80;1.80;;;;;;;;5005556;28;8991;-80
2021/08/16 09:29:07;;;;;;;;;2.00;1.60;;;;;;;;5004774;28;8878;-80
2021/08/16 09:31:35;;;;;;;;;2.40;1.80;;;;;;;;4998758;28;8807;-80
2021/08/16 09:34:03;;;;;;;;;1.20;1.20;;;;;;;;5003600;28;8871;-80
2021/08/16 09:36:37;;;;;;;;;3.00;2.00;;;;;;;;5004989;28;8868;-81
2021/08/16 09:39:05;;;;;;;;;1.20;1.20;;;;;;;;5002513;28;8881;-80
2021/08/16 09:41:33;;;;;;;;;3.00;3.00;;;;;;;;5001376;28;8863;-80
2021/08/16 09:44:11;;;;;;;;;1.40;1.40;;;;;;;;5004074;28;8967;-86
2021/08/16 09:46:39;;;;;;;;;1.20;1.00;;;;;;;;5003854;28;8904;-79
2021/08/16 09:49:09;;;;;;;;;0.60;0.60;;;;;;;;5005802;28;9744;-80
2021/08/16 09:51:37;;;;;;;;;0.60;0.60;;;;;;;;5003626;28;8946;-78
2021/08/16 09:54:05;;;;;;;;;1.00;1.00;;;;;;;;5005563;28;8888;-81
2021/08/16 09:56:32;;;;;;;;;2.25;2.00;;;;;;;;5004487;28;8872;-82
2021/08/16 09:58:59;;;;;;;;;1.00;1.00;;;;;;;;4987482;28;8990;-78
2021/08/16 10:01:27;;;;;;;;;2.00;2.00;;;;;;;;5003613;28;8823;-77
2021/08/16 10:03:54;;;;;;;;;1.25;1.25;;;;;;;;5005726;28;8968;-76
2021/08/16 10:06:24;;;;;;;;;3.00;2.25;;;;;;;;5005175;28;8880;-80
2021/08/16 10:08:54;;;;;;;;;2.75;1.00;;;;;;;;5003346;28;9675;-80
2021/08/16 10:11:22;;;;;;;;;3.75;2.50;;;;;;;;5004886;28;8868;-81
2021/08/16 10:13:52;;;;;;;;;1.60;1.60;;;;;;;;4986114;28;8896;-82
2021/08/16 10:16:22;;;;;;;;;2.00;2.00;;;;;;;;5004057;28;8898;-80
2021/08/16 10:18:52;;;;;;;;;3.25;2.25;;;;;;;;5004888;28;8857;-79
2021/08/16 10:21:24;;;;;;;;;4.00;2.75;;;;;;;;5008887;28;8903;-80
2021/08/16 10:23:53;;;;;;;;;2.00;2.00;;;;;;;;5005029;28;8880;-79
2021/08/16 10:26:28;;;;;;;;;4.00;2.00;;;;;;;;4985782;28;8868;-77
2021/08/16 10:28:57;;;;;;;;;2.25;2.00;;;;;;;;5004299;28;8876;-81
2021/08/16 10:31:30;;;;;;;;;3.00;3.00;;;;;;;;5002796;28;8821;-77
2021/08/16 10:33:58;;;;;;;;;3.50;3.50;;;;;;;;5003404;28;8884;-80
2021/08/16 10:36:27;;;;;;;;;3.00;3.00;;;;;;;;5004489;28;8880;-77
2021/08/16 10:38:55;;;;;;;;;2.00;2.00;;;;;;;;4985079;28;9757;-84
2021/08/16 10:41:27;;;;;;;;;2.80;2.80;;;;;;;;5004529;28;9832;-80
2021/08/16 10:43:55;;;;;;;;;6.00;6.00;;;;;;;;5002233;28;8899;-78
2021/08/16 10:46:23;;;;;;;;;4.00;4.00;;;;;;;;5004113;28;8856;-77
2021/08/16 10:49:01;;;;;;;;;1.00;1.00;;;;;;;;5003638;28;8882;-79
2021/08/16 10:51:42;;;;;;;;;4.60;4.60;;;;;;;;5003965;28;8895;-77
2021/08/16 10:54:09;;;;;;;;;4.20;4.20;;;;;;;;5004256;28;8938;-78
2021/08/16 10:56:37;;;;;;;;;6.00;3.00;;;;;;;;5003199;28;8878;-80
2021/08/16 10:59:04;;;;;;;;;3.00;3.00;;;;;;;;4983226;28;9839;-83
2021/08/16 11:01:32;;;;;;;;;3.00;3.00;;;;;;;;5002664;28;8820;-78
2021/08/16 11:04:01;;;;;;;;;5.00;5.00;;;;;;;;5003755;28;8848;-81
2021/08/16 11:06:29;;;;;;;;;5.00;5.00;;;;;;;;5003700;28;9031;-81
2021/08/16 11:08:59;;;;;;;;;6.00;6.00;;;;;;;;5003708;28;8864;-78
2021/08/16 11:11:27;;;;;;;;;6.20;5.00;;;;;;;;5004165;28;8876;-79
2021/08/16 11:14:06;;;;;;;;;4.60;4.60;;;;;;;;5003249;28;8868;-80
2021/08/16 11:16:33;;;;;;;;;6.60;6.60;;;;;;;;5005983;28;8892;-80
2021/08/16 11:19:01;;;;;;;;;6.80;6.80;;;;;;;;5007263;28;8883;-81
2021/08/16 11:21:30;;;;;;;;;6.00;6.00;;;;;;;;5006830;28;9623;-81
2021/08/16 11:24:01;;;;;;;;;6.60;6.60;;;;;;;;5006300;28;8896;-80
2021/08/16 11:26:29;;;;;;;;;7.60;5.80;;;;;;;;5007142;28;8991;-80
2021/08/16 11:29:06;;;;;;;;;7.60;7.00;;;;;;;;4990765;28;8868;-81
2021/08/16 11:31:33;;;;;;;;;5.80;5.80;;;;;;;;5006179;28;8828;-82
2021/08/16 11:34:07;;;;;;;;;7.80;7.80;;;;;;;;5007468;28;8877;-80
2021/08/16 11:36:35;;;;;;;;;9.00;9.00;;;;;;;;4990008;28;8986;-81
2021/08/16 11:39:06;;;;;;;;;8.00;8.00;;;;;;;;5006878;28;8876;-79
2021/08/16 11:41:34;;;;;;;;;8.60;7.60;;;;;;;;5007775;28;8852;-80
2021/08/16 11:44:12;;;;;;;;;8.60;7.80;;;;;;;;5006179;28;8872;-81
2021/08/16 11:46:39;;;;;;;;;10.80;9.80;;;;;;;;5007887;28;8844;-80
2021/08/16 11:49:11;;;;;;;;;12.80;12.80;;;;;;;;4988554;28;8888;-80
2021/08/16 11:51:40;;;;;;;;;12.20;12.20;;;;;;;;5007383;28;8877;-81
2021/08/16 11:54:09;;;;;;;;;11.60;11.60;;;;;;;;5006823;28;8864;-79
2021/08/16 11:56:39;;;;;;;;;17.40;15.20;;;;;;;;5006268;28;9043;-82
2021/08/16 11:59:13;;;;;;;;;16.20;16.20;;;;;;;;5007658;28;8872;-81
2021/08/16 12:01:41;;;;;;;;;18.80;18.80;;;;;;;;5005428;28;8835;-81
2021/08/16 12:04:09;;;;;;;;;17.40;14.40;;;;;;;;5007502;28;8970;-80
2021/08/16 12:06:36;;;;;;;;;22.60;19.40;;;;;;;;5006124;28;8900;-81
2021/08/16 12:09:08;;;;;;;;;22.20;18.80;;;;;;;;5006972;28;8868;-79
2021/08/16 12:11:36;;;;;;;;;22.60;22.20;;;;;;;;5006674;28;8856;-81
2021/08/16 12:14:05;;;;;;;;;24.80;21.20;;;;;;;;5006021;28;8860;-80
2021/08/16 12:16:34;;;;;;;;;23.00;19.40;;;;;;;;5007033;28;8860;-82
2021/08/16 12:19:02;;;;;;;;;27.40;25.80;;;;;;;;5005743;28;8888;-81
2021/08/16 12:21:30;;;;;;;;;29.00;25.60;;;;;;;;5007471;28;8856;-78
2021/08/16 12:23:58;;;;;;;;;24.20;20.80;;;;;;;;5005528;28;8879;-79
2021/08/16 12:26:32;;;;;;;;;25.20;23.00;;;;;;;;5006553;28;9789;-79
2021/08/16 12:29:01;;;;;;;;;24.60;22.20;;;;;;;;5006523;28;8880;-77
2021/08/16 12:31:30;;;;;;;;;27.00;24.60;;;;;;;;5005214;28;8840;-91
2021/08/16 12:33:59;;;;;;;;;20.80;18.20;;;;;;;;5005302;28;9650;-83
2021/08/16 12:36:28;;;;;;;;;27.00;25.00;;;;;;;;4986581;28;8864;-83
2021/08/16 12:39:01;;;;;;;;;32.20;28.40;;;;;;;;5007202;28;8880;-87
2021/08/16 12:41:32;;;;;;;;;28.00;26.20;;;;;;;;5004912;28;8993;-89
2021/08/16 12:44:00;;;;;;;;;26.80;25.60;;;;;;;;5004463;28;9663;-88
2021/08/16 12:46:43;;;;;;;;;29.40;27.80;;;;;;;;4988142;28;8857;-90
2021/08/16 12:49:20;;;;;;;;;30.00;29.80;;;;;;;;5004318;28;8991;-88
2021/08/16 12:51:48;;;;;;;;;34.40;30.00;;;;;;;;4990696;28;8872;-89
2021/08/16 12:54:15;;;;;;;;;28.20;26.60;;;;;;;;5005957;28;9622;-89
2021/08/16 12:56:44;;;;;;;;;25.20;23.80;;;;;;;;5007614;28;8872;-86
2021/08/16 12:59:11;;;;;;;;;27.00;25.60;;;;;;;;5006910;28;8883;-92
2021/08/16 13:01:38;;;;;;;;;25.20;25.00;;;;;;;;5006062;28;9633;-86
2021/08/16 13:04:06;;;;;;;;;27.60;27.00;;;;;;;;5006970;28;8873;-86
2021/08/16 13:06:33;;;;;;;;;27.40;27.20;;;;;;;;5005960;28;9871;-84
2021/08/16 13:09:00;;;;;;;;;24.60;24.60;;;;;;;;4989293;28;8884;-89
2021/08/16 13:18:52;;;;;;;;;30.80;26.40;;;;;;;;4903824;29;8873;-88
2021/08/16 13:21:19;;;;;;;;;30.75;25.75;;;;;;;;4907310;29;9678;-88
2021/08/16 13:23:46;;;;;;;;;30.50;29.25;;;;;;;;4967020;28;8853;-86
2021/08/16 13:26:14;;;;;;;;;29.50;27.25;;;;;;;;5004863;28;8874;-91
2021/08/16 13:28:41;;;;;;;;;29.20;25.80;;;;;;;;4986507;28;8900;-91
2021/08/16 13:31:08;;;;;;;;;29.20;27.40;;;;;;;;5005650;28;8847;-85
2021/08/16 13:33:36;;;;;;;;;38.40;30.00;;;;;;;;5004203;28;8864;-80
2021/08/16 13:36:05;;;;;;;;;29.00;28.60;;;;;;;;5005634;28;8987;-85
2021/08/16 13:38:32;;;;;;;;;27.20;26.20;;;;;;;;5004186;28;8899;-84
2021/08/16 13:41:00;;;;;;;;;24.60;22.40;;;;;;;;5005732;28;9663;-87
2021/08/16 13:43:27;;;;;;;;;35.40;30.80;;;;;;;;5006173;28;9018;-87
2021/08/16 13:45:54;;;;;;;;;26.40;24.80;;;;;;;;5004900;28;9670;-88
2021/08/16 13:48:22;;;;;;;;;27.40;25.60;;;;;;;;4988224;28;9651;-82
2021/08/16 13:50:49;;;;;;;;;28.80;27.20;;;;;;;;5004042;28;8922;-82
2021/08/16 13:53:18;;;;;;;;;39.00;31.20;;;;;;;;5005907;28;8876;-81
2021/08/16 13:55:45;;;;;;;;;32.80;30.60;;;;;;;;5004435;28;8894;-82
2021/08/16 13:58:13;;;;;;;;;30.80;27.20;;;;;;;;5004960;28;8900;-86
2021/08/16 14:00:40;;;;;;;;;28.80;28.80;;;;;;;;5004119;28;8808;-86
2021/08/16 14:03:09;;;;;;;;;34.20;30.40;;;;;;;;4987188;28;8865;-90
2021/08/16 14:05:37;;;;;;;;;30.40;26.40;;;;;;;;4996148;28;8856;-90
2021/08/16 14:08:05;;;;;;;;;33.80;30.40;;;;;;;;4983316;28;8876;-90
2021/08/16 14:10:36;;;;;;;;;33.20;29.20;;;;;;;;5005292;28;8877;-91
2021/08/16 14:13:03;;;;;;;;;34.00;29.80;;;;;;;;5004576;28;9747;-90
2021/08/16 14:15:33;;;;;;;;;29.50;26.75;;;;;;;;5005128;28;8908;-87
2021/08/16 14:18:03;;;;;;;;;35.75;30.75;;;;;;;;5002059;28;8880;-88
2021/08/16 14:20:30;;;;;;;;;30.00;29.75;;;;;;;;5001724;28;8876;-91
2021/08/16 14:22:57;;;;;;;;;31.00;28.60;;;;;;;;5003034;28;8892;-90
2021/08/16 14:25:25;;;;;;;;;34.20;30.80;;;;;;;;5004849;28;8857;-89
2021/08/16 14:27:54;;;;;;;;;27.40;25.40;;;;;;;;5005769;28;8883;-86
2021/08/16 14:30:21;;;;;;;;;35.00;32.00;;;;;;;;4986609;28;9031;-85
2021/08/16 14:32:48;;;;;;;;;37.25;32.50;;;;;;;;5004950;28;8860;-87
2021/08/16 14:35:16;;;;;;;;;38.00;33.20;;;;;;;;5004578;28;8983;-88
2021/08/16 14:37:43;;;;;;;;;34.40;30.80;;;;;;;;5004951;28;8898;-87
2021/08/16 14:40:12;;;;;;;;;36.60;31.00;;;;;;;;5005232;28;8881;-87
2021/08/16 14:42:41;;;;;;;;;36.00;31.80;;;;;;;;5002950;28;8880;-86
2021/08/16 14:45:10;;;;;;;;;34.80;31.60;;;;;;;;5004587;28;8876;-87
2021/08/16 14:47:39;;;;;;;;;32.00;30.50;;;;;;;;5002789;28;8902;-87
2021/08/16 14:50:07;;;;;;;;;33.20;30.00;;;;;;;;5005559;28;8975;-86
2021/08/16 14:52:36;;;;;;;;;27.40;26.40;;;;;;;;5008786;28;8872;-84
2021/08/16 14:55:04;;;;;;;;;30.50;28.00;;;;;;;;5009156;28;8978;-86
2021/08/16 14:57:31;;;;;;;;;33.25;28.75;;;;;;;;4990863;28;8844;-88
2021/08/16 14:59:58;;;;;;;;;31.25;28.50;;;;;;;;4993703;28;8896;-86
2021/08/16 15:02:27;;;;;;;;;21.00;18.75;;;;;;;;4982894;28;8795;-83
2021/08/16 15:04:54;;;;;;;;;30.75;30.25;;;;;;;;4993886;28;9404;-83
2021/08/16 15:07:21;;;;;;;;;30.00;26.50;;;;;;;;5009361;28;8876;-87
2021/08/16 15:22:22;;;;;;;;;37.25;31.50;;;;;;;;5005115;28;8792;-87
2021/08/16 15:24:50;;;;;;;;;31.75;28.75;;;;;;;;4997196;28;8860;-87
2021/08/16 15:27:17;;;;;;;;;33.50;30.75;;;;;;;;5007562;28;8864;-87
2021/08/16 15:29:54;;;;;;;;;30.75;29.50;;;;;;;;5001399;28;8875;-87
2021/08/16 15:32:23;;;;;;;;;34.75;31.00;;;;;;;;5003426;28;8801;-85
2021/08/16 15:34:52;;;;;;;;;29.50;27.00;;;;;;;;5007689;28;8880;-86
2021/08/16 15:37:21;;;;;;;;;30.50;25.50;;;;;;;;5001060;28;8887;-86
2021/08/16 15:39:49;;;;;;;;;28.50;26.50;;;;;;;;5007760;28;8888;-85
2021/08/16 15:42:17;;;;;;;;;32.50;29.25;;;;;;;;5004343;28;8888;-85
2021/08/16 15:44:44;;;;;;;;;29.75;27.25;;;;;;;;4997579;28;8994;-85
2021/08/16 15:47:12;;;;;;;;;33.25;30.00;;;;;;;;5008592;28;8868;-86
2021/08/16 15:49:39;;;;;;;;;26.25;24.75;;;;;;;;5007732;28;8864;-85
2021/08/16 15:52:08;;;;;;;;;27.50;24.75;;;;;;;;5007366;28;8884;-84
2021/08/16 15:54:38;;;;;;;;;27.75;26.25;;;;;;;;5008563;28;8882;-87
2021/08/16 15:57:05;;;;;;;;;31.00;28.00;;;;;;;;4994336;28;8922;-86
2021/08/16 15:59:33;;;;;;;;;23.75;19.25;;;;;;;;5007474;28;8991;-85
2021/08/16 16:02:01;;;;;;;;;32.25;26.75;;;;;;;;5004632;28;8827;-83
2021/08/16 16:04:28;;;;;;;;;24.25;22.50;;;;;;;;5008445;28;9003;-86
2021/08/16 16:06:55;;;;;;;;;25.75;24.25;;;;;;;;4989383;28;8892;-86
2021/08/16 16:09:25;;;;;;;;;29.25;25.75;;;;;;;;5007717;28;9092;-86
2021/08/16 16:11:54;;;;;;;;;24.75;24.00;;;;;;;;4990672;28;9626;-86
2021/08/16 16:14:21;;;;;;;;;23.25;20.25;;;;;;;;5006375;28;8910;-84
2021/08/16 16:16:48;;;;;;;;;24.25;24.25;;;;;;;;4999815;28;8854;-85
2021/08/16 16:19:15;;;;;;;;;28.75;27.75;;;;;;;;5002075;28;8896;-86
2021/08/16 16:21:43;;;;;;;;;24.00;22.75;;;;;;;;5007190;28;8995;-86
2021/08/16 16:24:11;;;;;;;;;28.50;26.25;;;;;;;;5005833;28;8922;-86